Etusivu
METAR-TAF:

METAR-TAF

Lentoasemat :

Taškent, Uzbekistan

Leveyspiiri: 41-16N, Pituuspiiri: 069-16E, korkeus merenpinnasta: 489 m

Tämänhetkinen sää

Tämä raportti tehtiin 20 minuuttia sitten, kello 21.00 UTC
Tuuli 8 kn idästä
Lämpötila 18°C
Kosteus 49%
Ilmanpaine 1014 hPa
Näkyvyys 10 km tai enemmän
ei pilviä alle 1500 m:ssä eikä cumulonimbus-pilviä

METAR: UTTT 172100Z 08008KT CAVOK 18/07 Q1014 R08R/CLRD70 NOSIG

Aika: 02:20 (21:20 UTC)

Sääennuste

Tämä raportti tehtiin 4 tuntia ja 20 minuuttia sitten, kello 17.00 UTC
Ennuste voimassa 17. päivästä klo 18 UTC - 18. päivään klo 18 UTC
Tuuli 12 kn idästä/koillisesta
Näkyvyys: 7000 m
Muutamia pilviä 6000 ft:n korkeudessa, Cumulonimbus.
Hajanaisia pilviä 10000 ft:n korkeudessa

TAF: UTTT 171700Z 1718/1818 06012KT 7000 FEW060CB SCT100

Säähavainnot ja -ennusteet yli 4000 lentoasemalta (METAR- ja TAF-raportit).

Käytössä olevat sääasemat on merkitty karttaan keltaisilla ja punaisilla pisteillä.

Aseta hiiri pisteen päälle nähdäksesi sääaseman nimen.

Klikkaa sitten nähdäksesi säähavainnot ja -ennusteet.

Kartan vaihtaminen: klikkaa mustalla rastilla varustettuja vihreitä pisteitä, niin voit zoomata sisään; viivalla varustettua vihreää pistettä, niin voit zoomata ulos tai vihreitä nuolia, niin pääset viereisille kartoille.


METAR-TAF: